Time;durP1;ratioP1;P1;durP2;ratioP2;P2;SDS_P1;SDS_P2;PMS_P1;PMS_P2;Temp;Humidity;BMP_temperature;BMP_pressure;BME280_temperature;BME280_humidity;BME280_pressure;Samples;Min_cycle;Max_cycle;Signal;HPM_P1;HPM_P2
2023/05/13 06:50:37;;;;;;;2.72;2.53;;;;;;;;;;5071731;28;20379;-89
2023/05/13 06:53:02;;;;;;;3.33;2.33;;;;;;;;;;5070299;28;20607;-89
2023/05/13 06:55:27;;;;;;;2.67;2.47;;;;;;;;;;5069921;28;20025;-95
2023/05/13 06:57:53;;;;;;;6.25;2.30;;;;;;;;;;5058812;28;20037;-92
2023/05/13 07:00:19;;;;;;;2.75;2.55;;;;;;;;;;5052030;28;20490;-88
2023/05/13 07:02:45;;;;;;;2.55;2.35;;;;;;;;;;5051279;28;20026;-90
2023/05/13 07:05:11;;;;;;;3.60;2.67;;;;;;;;;;5050877;28;20490;-94
2023/05/13 07:07:36;;;;;;;5.90;2.70;;;;;;;;;;5050414;28;20029;-95
2023/05/13 07:10:02;;;;;;;3.15;2.60;;;;;;;;;;5051813;28;20132;-93
2023/05/13 07:12:28;;;;;;;2.60;2.40;;;;;;;;;;5051521;28;20032;-90
2023/05/13 07:14:53;;;;;;;2.80;2.60;;;;;;;;;;5051458;28;20030;-93
2023/05/13 07:17:19;;;;;;;2.70;2.50;;;;;;;;;;5050861;28;20021;-91
2023/05/13 07:19:44;;;;;;;3.58;2.60;;;;;;;;;;5051159;28;20463;-91
2023/05/13 07:22:10;;;;;;;2.85;2.58;;;;;;;;;;5052024;28;20053;-92
2023/05/13 07:24:35;;;;;;;2.60;2.40;;;;;;;;;;5051280;28;20091;-91
2023/05/13 07:27:02;;;;;;;3.78;2.63;;;;;;;;;;5035658;28;20032;-91
2023/05/13 07:29:29;;;;;;;3.63;3.10;;;;;;;;;;5053545;28;20029;-90
2023/05/13 07:31:55;;;;;;;2.70;2.38;;;;;;;;;;5055304;28;20033;-91
2023/05/13 07:34:20;;;;;;;6.20;4.15;;;;;;;;;;5055510;28;20025;-91
2023/05/13 07:36:46;;;;;;;4.15;3.53;;;;;;;;;;5064253;28;20032;-91
2023/05/13 07:39:11;;;;;;;3.80;3.50;;;;;;;;;;5071926;28;20013;-88
2023/05/13 07:41:37;;;;;;;2.92;2.72;;;;;;;;;;5067257;28;20088;-86
2023/05/13 07:44:02;;;;;;;4.50;2.60;;;;;;;;;;5062754;28;20025;-87
2023/05/13 07:46:28;;;;;;;2.75;2.55;;;;;;;;;;5063282;28;20052;-87
2023/05/13 07:48:53;;;;;;;2.80;2.60;;;;;;;;;;5056007;28;20079;-88
2023/05/13 07:51:19;;;;;;;4.78;2.53;;;;;;;;;;5038988;28;20036;-87
2023/05/13 07:53:45;;;;;;;2.63;2.42;;;;;;;;;;5043661;28;20030;-88
2023/05/13 07:56:11;;;;;;;2.67;2.47;;;;;;;;;;5040072;28;20026;-88
2023/05/13 07:58:37;;;;;;;2.85;2.65;;;;;;;;;;5039800;28;20522;-87
2023/05/13 08:01:03;;;;;;;2.83;2.63;;;;;;;;;;5035046;28;20476;-92
2023/05/13 08:03:29;;;;;;;2.70;2.50;;;;;;;;;;5019081;28;20480;-91
2023/05/13 08:05:55;;;;;;;5.80;3.13;;;;;;;;;;5035840;28;20026;-92
2023/05/13 08:08:20;;;;;;;3.28;2.90;;;;;;;;;;5036203;28;20025;-93
2023/05/13 08:10:46;;;;;;;3.58;2.70;;;;;;;;;;5035672;28;20032;-93
2023/05/13 08:13:11;;;;;;;6.22;2.67;;;;;;;;;;5035709;28;20026;-92
2023/05/13 08:15:37;;;;;;;3.78;2.85;;;;;;;;;;5035787;28;20167;-92
2023/05/13 08:18:02;;;;;;;6.38;2.80;;;;;;;;;;5037783;28;20060;-94
2023/05/13 10:04:23;;;;;;;3.10;2.90;;;;;;;;;;5016471;28;20081;-90
2023/05/13 10:06:49;;;;;;;3.50;3.05;;;;;;;;;;5015571;28;20034;-94
2023/05/13 10:09:16;;;;;;;3.03;2.78;;;;;;;;;;5014332;28;20507;-95
2023/05/13 10:11:46;;;;;;;3.20;2.90;;;;;;;;;;5015383;28;20105;-93
2023/05/13 10:14:12;;;;;;;3.10;2.80;;;;;;;;;;5014891;28;20030;-96
2023/05/13 10:16:41;;;;;;;3.05;2.80;;;;;;;;;;5017191;28;20556;-96
2023/05/13 10:19:06;;;;;;;3.10;2.90;;;;;;;;;;5014199;28;20453;-88
2023/05/13 10:21:35;;;;;;;3.00;2.80;;;;;;;;;;5014992;28;20057;-89
2023/05/13 10:24:00;;;;;;;3.83;2.90;;;;;;;;;;5013483;28;20037;-90
2023/05/13 10:26:26;;;;;;;4.63;3.17;;;;;;;;;;5014370;28;20473;-93
2023/05/13 10:28:53;;;;;;;4.50;3.25;;;;;;;;;;5017851;28;20033;-93
2023/05/13 10:31:19;;;;;;;4.93;4.22;;;;;;;;;;5017353;28;20030;-96
2023/05/13 10:33:44;;;;;;;6.22;5.63;;;;;;;;;;5014026;28;20396;-88
2023/05/13 10:37:00;;;;;;;4.53;4.13;;;;;;;;;;5015000;28;20084;-94
2023/05/13 10:39:55;;;;;;;7.55;5.40;;;;;;;;;;4958031;28;20057;-94
2023/05/13 10:42:37;;;;;;;8.40;7.50;;;;;;;;;;4954767;28;20039;-92
2023/05/13 10:45:03;;;;;;;5.82;5.20;;;;;;;;;;4999946;28;20045;-91
2023/05/13 10:47:32;;;;;;;6.28;5.68;;;;;;;;;;5014388;28;20505;-91
2023/05/13 10:50:03;;;;;;;8.02;7.22;;;;;;;;;;5013371;28;20046;-91
2023/05/13 10:52:45;;;;;;;8.50;6.72;;;;;;;;;;5016072;28;20034;-96
2023/05/13 10:55:19;;;;;;;6.72;5.80;;;;;;;;;;5017543;28;20030;-94
2023/05/13 10:58:17;;;;;;;6.68;5.97;;;;;;;;;;5018299;28;20022;-96
2023/05/13 11:00:53;;;;;;;7.05;6.25;;;;;;;;;;4989320;28;20060;-96
2023/05/13 11:03:18;;;;;;;6.32;5.80;;;;;;;;;;5016834;28;20058;-96
2023/05/13 11:05:59;;;;;;;8.27;5.47;;;;;;;;;;5017490;28;20096;-93
2023/05/13 11:08:42;;;;;;;5.03;4.60;;;;;;;;;;5013089;28;20030;-92
2023/05/13 11:11:21;;;;;;;5.60;4.97;;;;;;;;;;5013185;28;20117;-92
2023/05/13 12:47:51;;;;;;;3.13;2.13;;;;;;;;;;5608138;23;20046;-86
2023/05/13 12:50:18;;;;;;;2.33;2.10;;;;;;;;;;4997418;28;20104;-88
2023/05/13 12:52:43;;;;;;;2.03;1.92;;;;;;;;;;5015132;28;20044;-86
2023/05/13 12:55:11;;;;;;;1.83;1.60;;;;;;;;;;4997861;28;20034;-86
2023/05/13 12:57:36;;;;;;;2.65;1.98;;;;;;;;;;4998760;28;20076;-87
2023/05/13 13:00:02;;;;;;;2.35;2.15;;;;;;;;;;4978167;28;20037;-87
2023/05/13 13:02:27;;;;;;;1.80;1.70;;;;;;;;;;4995263;28;20041;-87
2023/05/13 13:04:53;;;;;;;1.80;1.70;;;;;;;;;;4984417;28;20495;-88
2023/05/13 13:07:18;;;;;;;2.90;1.77;;;;;;;;;;4997731;28;20033;-91
2023/05/13 13:09:43;;;;;;;1.80;1.70;;;;;;;;;;5015059;28;20402;-86
2023/05/13 13:12:09;;;;;;;2.15;1.92;;;;;;;;;;5015141;28;20415;-84
2023/05/13 13:14:34;;;;;;;1.92;1.83;;;;;;;;;;5015491;28;20377;-87
2023/05/13 13:17:00;;;;;;;3.15;1.80;;;;;;;;;;5015210;28;20033;-85
2023/05/13 13:19:25;;;;;;;3.30;1.60;;;;;;;;;;5015004;28;20026;-85
2023/05/13 13:21:50;;;;;;;2.72;1.58;;;;;;;;;;5009048;28;20037;-87
2023/05/13 13:24:16;;;;;;;1.50;1.35;;;;;;;;;;4995236;28;20030;-85
2023/05/13 13:26:41;;;;;;;4.07;1.80;;;;;;;;;;4995352;28;20093;-85
2023/05/13 13:29:07;;;;;;;3.35;1.90;;;;;;;;;;4995158;28;20034;-84
2023/05/13 13:31:32;;;;;;;2.28;1.52;;;;;;;;;;4995102;28;20030;-85
2023/05/13 13:34:03;;;;;;;3.83;1.63;;;;;;;;;;4995029;28;20026;-84
2023/05/13 13:36:28;;;;;;;2.38;1.67;;;;;;;;;;4995134;28;20037;-84
2023/05/13 13:38:54;;;;;;;1.92;1.75;;;;;;;;;;4977410;28;20034;-84
2023/05/13 13:41:19;;;;;;;2.13;1.55;;;;;;;;;;4994886;28;20377;-85
2023/05/13 13:43:45;;;;;;;3.88;1.92;;;;;;;;;;4994815;28;20022;-86
2023/05/13 13:46:10;;;;;;;1.70;1.60;;;;;;;;;;4994974;28;20049;-83
2023/05/13 13:48:36;;;;;;;3.38;1.60;;;;;;;;;;4994181;28;20086;-84
2023/05/13 13:51:01;;;;;;;1.73;1.60;;;;;;;;;;4994887;28;20042;-85
2023/05/13 13:53:27;;;;;;;3.67;1.58;;;;;;;;;;4994947;28;20452;-84
2023/05/13 13:55:52;;;;;;;1.70;1.60;;;;;;;;;;4999202;28;20026;-84
2023/05/13 13:58:18;;;;;;;2.25;1.58;;;;;;;;;;4996707;28;20021;-84
2023/05/13 14:00:43;;;;;;;1.73;1.60;;;;;;;;;;5014258;28;20385;-85
2023/05/13 14:03:09;;;;;;;2.90;1.40;;;;;;;;;;4997295;28;20365;-84
2023/05/13 14:05:34;;;;;;;1.50;1.40;;;;;;;;;;5014647;28;20018;-84
2023/05/13 14:08:00;;;;;;;1.50;1.40;;;;;;;;;;5014656;28;20491;-89
2023/05/13 14:10:25;;;;;;;1.55;1.40;;;;;;;;;;4997023;28;20084;-88
2023/05/13 14:12:52;;;;;;;3.05;1.52;;;;;;;;;;5014738;28;20034;-91
2023/05/13 14:15:17;;;;;;;1.65;1.55;;;;;;;;;;4996941;28;20096;-92
2023/05/13 14:17:42;;;;;;;1.80;1.67;;;;;;;;;;4998988;28;20030;-94
2023/05/13 14:20:10;;;;;;;2.08;1.83;;;;;;;;;;4996746;28;20030;-89
2023/05/13 14:22:36;;;;;;;1.73;1.63;;;;;;;;;;4996624;28;20056;-89
2023/05/13 14:25:01;;;;;;;1.98;1.77;;;;;;;;;;5014210;28;20030;-89
2023/05/13 14:27:27;;;;;;;3.78;1.60;;;;;;;;;;4996525;28;20021;-89
2023/05/13 14:29:53;;;;;;;1.95;1.58;;;;;;;;;;4996517;28;20030;-88
2023/05/13 14:32:19;;;;;;;1.77;1.58;;;;;;;;;;5014289;28;20057;-89
2023/05/13 14:34:45;;;;;;;2.33;1.50;;;;;;;;;;5013875;28;20025;-89
2023/05/13 14:37:10;;;;;;;1.92;1.70;;;;;;;;;;4996595;28;20026;-89
2023/05/13 14:39:36;;;;;;;2.08;1.73;;;;;;;;;;4996436;28;20041;-89
2023/05/13 14:42:01;;;;;;;2.80;1.55;;;;;;;;;;5013955;28;20096;-89
2023/05/13 14:44:27;;;;;;;1.70;1.60;;;;;;;;;;4996990;28;20029;-89
2023/05/13 14:46:52;;;;;;;1.67;1.58;;;;;;;;;;5014065;28;20030;-89
2023/05/13 14:49:18;;;;;;;1.95;1.73;;;;;;;;;;5013949;28;20033;-88
2023/05/13 14:51:43;;;;;;;1.52;1.42;;;;;;;;;;4996332;28;20033;-89
2023/05/13 14:54:08;;;;;;;2.42;1.90;;;;;;;;;;5013735;28;20490;-89
2023/05/13 14:56:35;;;;;;;2.05;1.63;;;;;;;;;;4996432;28;20049;-89
2023/05/13 14:59:01;;;;;;;1.98;1.70;;;;;;;;;;4996029;28;20057;-89
2023/05/13 15:01:27;;;;;;;2.22;1.60;;;;;;;;;;4999268;28;20029;-89
2023/05/13 15:03:52;;;;;;;2.13;1.65;;;;;;;;;;5018115;28;20037;-89
2023/05/13 15:06:18;;;;;;;2.67;1.70;;;;;;;;;;4999994;28;20088;-89
2023/05/13 15:08:43;;;;;;;1.83;1.60;;;;;;;;;;5000332;28;20036;-89
2023/05/13 15:11:09;;;;;;;2.17;1.85;;;;;;;;;;4999892;28;20030;-89
2023/05/13 15:13:35;;;;;;;2.40;1.70;;;;;;;;;;5000172;28;20392;-88
2023/05/13 15:16:02;;;;;;;1.98;1.70;;;;;;;;;;5000205;28;20088;-88
2023/05/13 15:18:28;;;;;;;2.17;1.80;;;;;;;;;;5000137;28;20123;-89
2023/05/13 15:20:53;;;;;;;2.45;1.70;;;;;;;;;;5000317;28;20025;-89
2023/05/13 15:23:19;;;;;;;2.22;1.60;;;;;;;;;;5000028;28;20416;-89
2023/05/13 15:25:45;;;;;;;2.97;2.03;;;;;;;;;;4999913;28;20117;-89
2023/05/13 15:28:11;;;;;;;3.35;1.95;;;;;;;;;;5000275;28;20028;-91
2023/05/13 15:30:37;;;;;;;4.10;2.97;;;;;;;;;;5018298;28;20057;-89
2023/05/13 15:33:03;;;;;;;3.28;2.10;;;;;;;;;;4999845;28;20384;-89
2023/05/13 15:35:28;;;;;;;2.40;2.20;;;;;;;;;;4999587;28;20100;-89
2023/05/13 15:37:54;;;;;;;3.35;2.00;;;;;;;;;;4999403;28;20099;-88
2023/05/13 15:40:19;;;;;;;2.53;1.83;;;;;;;;;;4999581;28;20113;-89
2023/05/13 15:42:46;;;;;;;1.95;1.85;;;;;;;;;;4999430;28;20438;-89
2023/05/13 15:45:12;;;;;;;8.65;3.10;;;;;;;;;;4999363;28;20026;-89
2023/05/13 15:47:37;;;;;;;3.63;2.10;;;;;;;;;;4999168;28;20181;-90
2023/05/13 15:50:03;;;;;;;1.90;1.77;;;;;;;;;;4999498;28;20469;-89
2023/05/13 15:52:29;;;;;;;1.67;1.58;;;;;;;;;;5017152;28;20052;-88
2023/05/13 15:54:54;;;;;;;1.70;1.60;;;;;;;;;;5016871;28;20432;-89
2023/05/13 15:57:19;;;;;;;5.18;1.80;;;;;;;;;;4999469;28;20026;-89
2023/05/13 15:59:45;;;;;;;2.42;1.98;;;;;;;;;;5016416;28;20030;-89
2023/05/13 16:02:10;;;;;;;3.53;1.73;;;;;;;;;;5016739;28;20026;-89
2023/05/13 16:04:36;;;;;;;2.90;1.80;;;;;;;;;;4999149;28;20026;-89
2023/05/13 16:07:01;;;;;;;2.35;1.75;;;;;;;;;;4999139;28;20485;-89
2023/05/13 16:09:27;;;;;;;1.60;1.50;;;;;;;;;;4998994;28;20477;-89
2023/05/13 16:11:54;;;;;;;4.05;1.80;;;;;;;;;;5016358;28;20479;-89
2023/05/13 16:14:19;;;;;;;2.50;1.80;;;;;;;;;;5016505;28;20053;-89
2023/05/13 16:16:45;;;;;;;1.73;1.55;;;;;;;;;;4998961;28;20057;-88
2023/05/13 16:19:10;;;;;;;2.28;1.73;;;;;;;;;;4998525;28;20030;-89
2023/05/13 16:21:40;;;;;;;2.30;2.10;;;;;;;;;;5016250;28;20483;-88
2023/05/13 16:24:05;;;;;;;;;;;;;;;;;;4999315;28;20033;-89
2023/05/13 16:26:31;;;;;;;1.92;1.70;;;;;;;;;;4998815;28;19914;-88
2023/05/13 16:28:57;;;;;;;2.28;2.00;;;;;;;;;;4998846;28;20030;-90
2023/05/13 16:31:22;;;;;;;3.67;2.08;;;;;;;;;;4998492;28;20380;-89
2023/05/13 16:33:47;;;;;;;3.38;1.70;;;;;;;;;;4999278;28;20030;-89
2023/05/13 16:36:13;;;;;;;2.38;1.77;;;;;;;;;;5016314;28;20457;-89
2023/05/13 16:38:40;;;;;;;2.40;2.20;;;;;;;;;;4982621;28;20042;-90
2023/05/13 16:41:06;;;;;;;2.40;1.60;;;;;;;;;;4999951;28;20116;-89
2023/05/13 16:43:32;;;;;;;2.28;2.00;;;;;;;;;;4999629;28;20480;-88
2023/05/13 16:45:57;;;;;;;2.58;2.38;;;;;;;;;;5018621;28;20026;-89
2023/05/13 16:48:22;;;;;;;2.88;2.10;;;;;;;;;;5015776;28;20064;-89
2023/05/13 16:50:48;;;;;;;2.28;2.00;;;;;;;;;;5015561;28;20030;-88
2023/05/13 16:53:13;;;;;;;3.65;2.38;;;;;;;;;;4998274;28;20068;-89
2023/05/13 16:55:39;;;;;;;2.53;1.90;;;;;;;;;;4998118;28;20022;-89
2023/05/13 16:58:04;;;;;;;2.42;1.98;;;;;;;;;;5015538;28;20530;-89
2023/05/13 17:00:30;;;;;;;2.10;1.58;;;;;;;;;;4998206;28;20025;-89
2023/05/13 17:02:56;;;;;;;2.13;1.90;;;;;;;;;;4997973;28;20481;-89
2023/05/13 17:05:22;;;;;;;2.67;2.17;;;;;;;;;;5015627;28;20037;-89
2023/05/13 17:07:47;;;;;;;2.70;2.15;;;;;;;;;;4997864;28;20030;-88
2023/05/13 17:10:12;;;;;;;2.20;2.00;;;;;;;;;;4998147;28;20029;-88
2023/05/13 17:12:38;;;;;;;3.60;1.95;;;;;;;;;;5015567;28;20417;-88
2023/05/13 17:15:04;;;;;;;2.53;2.13;;;;;;;;;;5015418;28;20484;-89
2023/05/13 17:17:29;;;;;;;1.77;1.67;;;;;;;;;;4998859;28;20026;-89
2023/05/13 17:19:55;;;;;;;1.80;1.70;;;;;;;;;;5017460;28;20047;-94
2023/05/13 17:22:20;;;;;;;3.20;1.85;;;;;;;;;;5016833;28;20029;-88
2023/05/13 17:24:45;;;;;;;2.20;1.80;;;;;;;;;;5028267;28;20522;-91
2023/05/13 17:27:11;;;;;;;2.30;2.13;;;;;;;;;;4990390;28;20077;-92
2023/05/13 17:29:36;;;;;;;2.55;2.10;;;;;;;;;;4995619;28;20034;-90
2023/05/13 17:32:02;;;;;;;2.25;1.80;;;;;;;;;;4995218;28;20489;-89
2023/05/13 17:34:27;;;;;;;1.90;1.80;;;;;;;;;;4992183;28;20026;-89
2023/05/13 17:36:53;;;;;;;2.38;2.00;;;;;;;;;;4997516;28;20057;-93
2023/05/13 17:39:18;;;;;;;2.35;2.00;;;;;;;;;;4997443;28;20026;-90
2023/05/13 17:41:44;;;;;;;3.05;1.90;;;;;;;;;;4993071;28;20033;-88
2023/05/13 17:44:10;;;;;;;4.88;2.08;;;;;;;;;;4977884;28;20124;-91
2023/05/13 17:46:36;;;;;;;3.03;1.83;;;;;;;;;;4978438;28;20038;-91
2023/05/13 17:49:02;;;;;;;5.78;2.10;;;;;;;;;;4977834;28;20046;-91
2023/05/13 17:51:27;;;;;;;2.05;1.85;;;;;;;;;;4977858;28;20033;-90
2023/05/13 17:53:53;;;;;;;4.35;2.03;;;;;;;;;;4977955;28;20022;-91
2023/05/13 17:56:18;;;;;;;2.58;2.10;;;;;;;;;;4977715;28;20034;-92
2023/05/13 17:58:44;;;;;;;2.22;2.00;;;;;;;;;;4982991;28;20373;-90
2023/05/13 18:01:09;;;;;;;2.90;2.65;;;;;;;;;;5016104;28;20033;-89
2023/05/13 18:03:35;;;;;;;5.30;2.53;;;;;;;;;;4997134;28;20033;-88
2023/05/13 18:06:00;;;;;;;2.47;2.20;;;;;;;;;;4997144;28;20029;-91
2023/05/13 18:08:26;;;;;;;8.95;8.10;;;;;;;;;;4997505;28;20461;-92
2023/05/13 18:10:51;;;;;;;8.23;7.38;;;;;;;;;;4997859;28;20022;-93
2023/05/13 18:13:17;;;;;;;2.10;2.00;;;;;;;;;;4998375;28;20045;-96
2023/05/13 18:15:43;;;;;;;2.05;1.83;;;;;;;;;;4998059;28;20018;-96
2023/05/13 18:18:08;;;;;;;2.60;2.10;;;;;;;;;;5014430;28;20033;-94
2023/05/13 18:20:34;;;;;;;2.88;2.00;;;;;;;;;;4997887;28;20492;-94
2023/05/13 18:22:59;;;;;;;4.93;3.33;;;;;;;;;;4997758;28;20026;-95
2023/05/13 18:25:25;;;;;;;5.32;4.20;;;;;;;;;;4997912;28;20034;-94
2023/05/13 18:27:51;;;;;;;5.05;3.47;;;;;;;;;;4997376;28;20553;-96
2023/05/13 18:30:17;;;;;;;3.85;3.47;;;;;;;;;;4997868;28;20026;-96
2023/05/13 18:32:42;;;;;;;3.00;2.70;;;;;;;;;;4995228;28;20029;-95
2023/05/13 18:35:09;;;;;;;3.60;2.90;;;;;;;;;;4978019;28;20034;-94
2023/05/13 18:37:34;;;;;;;3.80;3.20;;;;;;;;;;4978014;28;20030;-94
2023/05/13 18:40:03;;;;;;;5.65;3.97;;;;;;;;;;4977621;28;20030;-93
2023/05/13 18:42:29;;;;;;;3.33;2.50;;;;;;;;;;4978006;28;20025;-93
2023/05/13 18:44:54;;;;;;;2.95;2.20;;;;;;;;;;4978259;28;20397;-94
2023/05/13 18:47:20;;;;;;;3.10;2.00;;;;;;;;;;4977722;28;20042;-95
2023/05/13 18:49:46;;;;;;;4.60;2.88;;;;;;;;;;4978180;28;20477;-94
2023/05/13 18:52:11;;;;;;;3.83;3.30;;;;;;;;;;4978157;28;20525;-95
2023/05/13 18:54:37;;;;;;;15.63;11.27;;;;;;;;;;4977871;28;20034;-95
2023/05/13 18:57:04;;;;;;;12.45;8.45;;;;;;;;;;4978069;28;20385;-89
2023/05/13 18:59:29;;;;;;;4.15;2.70;;;;;;;;;;4994258;28;20080;-89
2023/05/13 19:01:55;;;;;;;4.80;2.40;;;;;;;;;;4977045;28;20026;-88
2023/05/13 19:04:21;;;;;;;4.13;2.50;;;;;;;;;;4994252;28;20117;-88
2023/05/13 19:06:46;;;;;;;2.42;2.10;;;;;;;;;;4977055;28;20049;-88
2023/05/13 19:09:11;;;;;;;3.97;2.35;;;;;;;;;;4994590;28;20398;-88
2023/05/13 19:11:37;;;;;;;2.97;1.98;;;;;;;;;;4976750;28;20473;-89
2023/05/13 19:14:02;;;;;;;2.15;1.90;;;;;;;;;;4976569;28;20118;-89
2023/05/13 19:16:28;;;;;;;3.22;2.05;;;;;;;;;;4976893;28;20109;-89
2023/05/13 19:18:53;;;;;;;1.95;1.80;;;;;;;;;;4976759;28;20031;-89
2023/05/13 19:21:22;;;;;;;4.13;2.13;;;;;;;;;;4976748;28;20481;-89
2023/05/13 19:23:47;;;;;;;2.83;2.08;;;;;;;;;;4977216;28;20038;-89
2023/05/13 19:26:13;;;;;;;3.22;2.50;;;;;;;;;;4977215;28;20023;-89
2023/05/13 19:28:38;;;;;;;6.03;5.53;;;;;;;;;;4977125;28;20034;-90
2023/05/13 19:31:04;;;;;;;3.97;3.53;;;;;;;;;;4977674;28;20026;-90
2023/05/13 19:33:30;;;;;;;5.22;2.78;;;;;;;;;;5003492;28;20042;-90
2023/05/13 19:35:55;;;;;;;3.25;2.50;;;;;;;;;;4997586;28;20466;-89
2023/05/13 19:38:21;;;;;;;2.45;2.30;;;;;;;;;;5015552;28;20022;-88
2023/05/13 19:40:47;;;;;;;3.00;2.70;;;;;;;;;;5016350;28;20026;-89
2023/05/13 19:43:13;;;;;;;2.50;2.30;;;;;;;;;;5016854;28;20434;-88
2023/05/13 19:45:38;;;;;;;2.63;2.10;;;;;;;;;;5017088;28;20030;-90
2023/05/13 19:48:04;;;;;;;1.98;1.80;;;;;;;;;;5028296;28;20585;-88
2023/05/13 19:50:29;;;;;;;2.95;2.05;;;;;;;;;;5007147;28;20464;-87
2023/05/13 19:52:55;;;;;;;2.05;1.90;;;;;;;;;;5025752;28;20076;-88
2023/05/13 19:55:20;;;;;;;2.65;2.10;;;;;;;;;;5012782;28;20032;-88
2023/05/13 19:57:46;;;;;;;2.83;2.63;;;;;;;;;;5011422;28;20029;-89
2023/05/13 20:00:12;;;;;;;4.10;2.72;;;;;;;;;;5001899;28;20084;-85
2023/05/13 20:02:38;;;;;;;3.20;2.60;;;;;;;;;;5016960;28;20021;-86
2023/05/13 20:05:04;;;;;;;3.13;2.70;;;;;;;;;;5017647;28;20081;-86
2023/05/13 20:07:30;;;;;;;3.42;2.80;;;;;;;;;;5017540;28;20029;-86
2023/05/13 20:09:55;;;;;;;3.42;2.70;;;;;;;;;;4999947;28;20162;-85
2023/05/13 20:12:21;;;;;;;3.03;2.50;;;;;;;;;;5017796;28;20026;-89
2023/05/13 20:14:50;;;;;;;3.22;2.95;;;;;;;;;;4999061;28;20030;-88
2023/05/13 20:17:18;;;;;;;3.67;2.38;;;;;;;;;;4998888;28;20026;-89
2023/05/13 20:19:44;;;;;;;3.53;3.22;;;;;;;;;;5016165;28;20029;-88
2023/05/13 20:22:09;;;;;;;3.58;2.53;;;;;;;;;;5016357;28;20050;-88
2023/05/13 20:24:35;;;;;;;5.78;2.88;;;;;;;;;;5016294;28;20112;-88
2023/05/13 20:27:01;;;;;;;3.15;2.60;;;;;;;;;;4998677;28;20026;-87
2023/05/13 20:29:33;;;;;;;4.07;2.72;;;;;;;;;;4998513;28;20440;-88
2023/05/13 20:31:59;;;;;;;2.97;2.20;;;;;;;;;;5016347;28;20022;-89
2023/05/13 20:34:25;;;;;;;3.33;2.50;;;;;;;;;;5016153;28;20057;-88
2023/05/13 20:36:50;;;;;;;3.10;2.80;;;;;;;;;;5016277;28;20368;-88
2023/05/13 20:39:16;;;;;;;3.55;2.60;;;;;;;;;;4998438;28;20447;-88
2023/05/13 20:41:41;;;;;;;3.10;2.30;;;;;;;;;;4998414;28;20037;-87
2023/05/13 20:44:06;;;;;;;4.45;2.60;;;;;;;;;;4998519;28;20108;-87
2023/05/13 20:46:32;;;;;;;2.80;2.60;;;;;;;;;;5015685;28;20029;-88
2023/05/13 20:48:57;;;;;;;2.97;2.17;;;;;;;;;;4998079;28;20052;-87
2023/05/13 20:51:23;;;;;;;3.33;2.42;;;;;;;;;;4998516;28;20168;-87
2023/05/13 20:53:49;;;;;;;2.33;2.00;;;;;;;;;;5015740;28;20492;-87
2023/05/13 20:56:14;;;;;;;4.03;2.47;;;;;;;;;;5016019;28;20156;-88
2023/05/13 20:58:40;;;;;;;3.50;2.42;;;;;;;;;;5015847;28;20022;-87
2023/05/13 21:01:05;;;;;;;2.60;2.40;;;;;;;;;;5015645;28;20392;-87
2023/05/13 21:03:31;;;;;;;2.83;2.40;;;;;;;;;;4998072;28;20131;-87
2023/05/13 21:05:57;;;;;;;2.80;2.47;;;;;;;;;;5015757;28;20034;-88
2023/05/13 21:08:22;;;;;;;2.47;2.15;;;;;;;;;;5015713;28;20109;-87
2023/05/13 21:10:48;;;;;;;2.30;2.10;;;;;;;;;;5015491;28;20101;-87
2023/05/13 21:13:13;;;;;;;2.40;2.20;;;;;;;;;;5015652;28;20033;-87
2023/05/13 21:15:39;;;;;;;2.97;2.05;;;;;;;;;;4997793;28;20021;-87
2023/05/13 21:18:05;;;;;;;4.10;2.10;;;;;;;;;;4997929;28;20069;-87
2023/05/13 21:20:31;;;;;;;2.45;1.90;;;;;;;;;;5015263;28;20483;-87
2023/05/13 21:22:57;;;;;;;2.50;2.30;;;;;;;;;;5015263;28;20022;-88
2023/05/13 21:25:22;;;;;;;2.30;2.10;;;;;;;;;;5015467;28;20524;-88
2023/05/13 21:27:49;;;;;;;3.10;2.05;;;;;;;;;;4997973;28;20158;-88
2023/05/13 21:30:14;;;;;;;2.20;2.10;;;;;;;;;;5014947;28;20037;-88
2023/05/13 21:32:39;;;;;;;3.42;2.30;;;;;;;;;;5014939;28;20112;-88
2023/05/13 21:35:06;;;;;;;3.30;2.50;;;;;;;;;;5015439;28;20026;-87
2023/05/13 21:37:31;;;;;;;2.78;2.50;;;;;;;;;;5015055;28;20539;-88
2023/05/13 21:39:57;;;;;;;3.72;2.40;;;;;;;;;;5014868;28;20037;-88
2023/05/13 21:42:23;;;;;;;3.28;2.13;;;;;;;;;;5014877;28;20032;-88
2023/05/13 21:44:48;;;;;;;2.90;2.42;;;;;;;;;;5014603;28;20100;-88
2023/05/13 21:47:14;;;;;;;2.05;1.95;;;;;;;;;;5014788;28;20054;-88
2023/05/13 21:49:39;;;;;;;4.25;2.10;;;;;;;;;;5014802;28;20053;-88
2023/05/13 21:52:05;;;;;;;2.72;2.20;;;;;;;;;;5014897;28;20453;-88
2023/05/13 21:54:31;;;;;;;4.22;2.80;;;;;;;;;;4997167;28;20108;-87
2023/05/13 21:56:56;;;;;;;2.72;2.53;;;;;;;;;;5014577;28;20030;-87
2023/05/13 21:59:21;;;;;;;3.70;2.13;;;;;;;;;;5014514;28;20033;-87
2023/05/13 22:01:47;;;;;;;4.20;2.00;;;;;;;;;;4997400;28;20048;-89
2023/05/13 22:04:12;;;;;;;2.58;2.00;;;;;;;;;;4996986;28;20021;-87
